createdAt,value
2018-08-06T00:00:06.876Z,5.50
2018-08-06T00:02:34.129Z,5.58
2018-08-06T00:05:01.405Z,5.65
2018-08-06T00:07:28.623Z,5.60
2018-08-06T00:09:55.886Z,5.80
2018-08-06T00:12:23.366Z,6.15
2018-08-06T00:14:50.591Z,5.77
2018-08-06T00:17:17.980Z,5.70
2018-08-06T00:19:45.219Z,6.00
2018-08-06T00:22:12.482Z,6.60
2018-08-06T00:24:39.683Z,9.38
2018-08-06T00:27:07.068Z,6.50
2018-08-06T00:29:34.378Z,6.12
2018-08-06T00:32:01.599Z,5.70
2018-08-06T00:34:28.929Z,5.70
2018-08-06T00:36:56.296Z,6.20
2018-08-06T00:39:23.560Z,6.62
2018-08-06T00:41:50.812Z,6.70
2018-08-06T00:44:18.155Z,6.70
2018-08-06T00:46:45.390Z,7.78
2018-08-06T00:49:12.659Z,7.45
2018-08-06T00:51:39.891Z,7.03
2018-08-06T00:54:07.153Z,7.35
2018-08-06T00:56:34.408Z,6.87
2018-08-06T00:59:01.663Z,7.35
2018-08-06T01:01:28.945Z,6.87
2018-08-06T01:03:56.193Z,7.67
2018-08-06T01:06:23.490Z,6.70
2018-08-06T01:08:50.778Z,6.90
2018-08-06T01:11:18.052Z,7.40
2018-08-06T01:13:45.388Z,7.37
2018-08-06T01:16:12.646Z,7.10
2018-08-06T01:18:39.893Z,7.25
2018-08-06T01:21:07.174Z,7.50
2018-08-06T01:23:34.479Z,7.50
2018-08-06T01:26:02.453Z,7.60
2018-08-06T01:28:29.747Z,8.10
2018-08-06T01:30:57.055Z,7.85
2018-08-06T01:33:24.286Z,8.00
2018-08-06T01:35:51.835Z,8.03
2018-08-06T01:38:19.141Z,8.55
2018-08-06T01:40:47.292Z,8.28
2018-08-06T01:43:14.515Z,8.80
2018-08-06T01:45:41.851Z,7.85
2018-08-06T01:48:09.064Z,8.53
2018-08-06T01:50:36.312Z,8.80
2018-08-06T01:53:03.570Z,8.80
2018-08-06T01:55:31.111Z,8.83
2018-08-06T01:57:58.351Z,9.60
2018-08-06T02:00:25.665Z,9.10
2018-08-06T02:02:52.968Z,9.03
2018-08-06T02:05:20.228Z,9.35
2018-08-06T02:07:47.583Z,9.70
2018-08-06T02:10:15.391Z,10.45
2018-08-06T02:12:43.526Z,10.60
2018-08-06T02:15:11.627Z,9.80
2018-08-06T02:17:39.291Z,11.33
2018-08-06T02:20:08.997Z,10.18
2018-08-06T02:22:36.868Z,10.75
2018-08-06T02:25:05.623Z,11.18
2018-08-06T02:27:32.964Z,10.67
2018-08-06T02:30:00.950Z,10.80
2018-08-06T02:32:28.307Z,11.30
2018-08-06T02:34:55.576Z,11.67
2018-08-06T02:37:22.961Z,11.10
2018-08-06T02:39:50.367Z,10.98
2018-08-06T02:42:17.628Z,11.15
2018-08-06T02:44:44.869Z,13.00
2018-08-06T02:47:12.297Z,11.97
2018-08-06T02:49:39.956Z,11.97
2018-08-06T02:52:07.315Z,12.10
2018-08-06T02:54:34.607Z,12.58
2018-08-06T02:57:02.264Z,12.13
2018-08-06T02:59:29.530Z,11.57
2018-08-06T03:01:56.977Z,12.43
2018-08-06T03:04:24.378Z,13.00
2018-08-06T03:06:51.635Z,12.87
2018-08-06T03:09:18.948Z,12.82
2018-08-06T03:11:46.186Z,12.80
2018-08-06T03:14:13.425Z,13.70
2018-08-06T03:16:40.704Z,12.63
2018-08-06T03:19:08.060Z,13.80
2018-08-06T03:21:35.357Z,13.28
2018-08-06T03:24:02.834Z,14.10
2018-08-06T03:26:30.239Z,14.85
2018-08-06T03:28:57.476Z,14.87
2018-08-06T03:31:24.872Z,16.40
2018-08-06T03:33:52.161Z,15.53
2018-08-06T03:36:19.499Z,15.78
2018-08-06T03:38:46.773Z,15.65
2018-08-06T03:41:14.104Z,15.88
2018-08-06T03:43:41.411Z,15.90
2018-08-06T03:46:08.652Z,16.55
2018-08-06T03:48:35.948Z,15.85
2018-08-06T03:51:03.241Z,17.45
2018-08-06T03:53:30.566Z,16.97
2018-08-06T03:55:57.816Z,17.10
2018-08-06T03:58:25.188Z,15.80
2018-08-06T04:00:52.629Z,16.27
2018-08-06T04:03:20.115Z,16.35
2018-08-06T04:05:47.408Z,15.83
2018-08-06T04:08:14.653Z,14.90
2018-08-06T04:10:41.917Z,15.72
2018-08-06T04:13:09.130Z,15.72
2018-08-06T04:15:36.347Z,16.00
2018-08-06T04:18:03.605Z,15.40
2018-08-06T04:20:30.831Z,14.18
2018-08-06T04:22:58.059Z,15.00
2018-08-06T04:25:25.361Z,15.00
2018-08-06T04:27:52.724Z,15.40
2018-08-06T04:30:20.027Z,16.87
2018-08-06T04:32:47.423Z,16.50
2018-08-06T04:35:15.478Z,15.20
2018-08-06T04:37:43.507Z,14.53
2018-08-06T04:40:11.654Z,15.60
2018-08-06T04:42:39.308Z,14.25
2018-08-06T04:45:07.449Z,14.58
2018-08-06T04:47:34.887Z,14.53
2018-08-06T04:50:02.409Z,14.45
2018-08-06T04:52:29.768Z,15.20
2018-08-06T04:54:56.947Z,13.30
2018-08-06T04:57:24.148Z,13.70
2018-08-06T04:59:51.405Z,12.50
2018-08-06T05:02:18.743Z,12.18
2018-08-06T05:04:46.008Z,12.58
2018-08-06T05:07:13.340Z,13.05
2018-08-06T05:09:42.722Z,12.35
2018-08-06T05:12:09.984Z,12.53
2018-08-06T05:14:39.020Z,12.15
2018-08-06T05:17:07.069Z,11.97
2018-08-06T05:19:35.053Z,12.30
2018-08-06T05:22:02.614Z,11.20
2018-08-06T05:24:29.984Z,11.97
2018-08-06T05:26:57.672Z,12.30
2018-08-06T05:29:25.012Z,12.63
2018-08-06T05:31:52.328Z,12.85
2018-08-06T05:34:19.946Z,12.70
2018-08-06T05:36:47.331Z,10.82
2018-08-06T05:39:14.652Z,11.28
2018-08-06T05:41:41.903Z,10.55
2018-08-06T05:44:09.295Z,11.07
2018-08-06T05:46:37.986Z,10.93
2018-08-06T05:49:05.403Z,10.37
2018-08-06T05:51:32.775Z,10.53
2018-08-06T05:54:00.147Z,9.78
2018-08-06T05:56:27.360Z,9.40
2018-08-06T05:58:54.881Z,9.50
2018-08-06T06:01:22.263Z,9.50
2018-08-06T06:03:49.514Z,9.38
2018-08-06T06:06:16.787Z,10.05
2018-08-06T06:08:44.121Z,8.95
2018-08-06T06:11:11.369Z,8.00
2018-08-06T06:13:38.628Z,8.23
2018-08-06T06:16:06.759Z,7.80
2018-08-06T06:18:34.069Z,6.77
2018-08-06T06:21:01.405Z,6.57
2018-08-06T06:23:28.800Z,5.93
2018-08-06T06:25:56.118Z,7.13
2018-08-06T06:28:23.408Z,5.63
2018-08-06T06:30:50.689Z,6.00
2018-08-06T06:33:18.009Z,5.20
2018-08-06T06:35:45.326Z,5.63
2018-08-06T06:38:12.586Z,4.23
2018-08-06T06:40:39.832Z,6.10
2018-08-06T06:43:07.081Z,6.93
2018-08-06T06:45:34.346Z,7.03
2018-08-06T06:48:01.658Z,7.30
2018-08-06T06:50:28.934Z,8.07
2018-08-06T06:52:56.412Z,7.40
2018-08-06T06:55:23.665Z,6.70
2018-08-06T06:57:50.938Z,7.80
2018-08-06T07:00:18.256Z,6.90
2018-08-06T07:02:45.458Z,6.00
2018-08-06T07:29:41.523Z,4.57
2018-08-06T07:32:08.804Z,4.57
2018-08-06T07:34:36.159Z,4.77
2018-08-06T07:37:03.427Z,4.25
2018-08-06T07:39:30.727Z,4.05
2018-08-06T07:41:57.988Z,3.77
2018-08-06T07:44:25.343Z,3.60
2018-08-06T07:46:52.651Z,4.00
2018-08-06T07:49:20.026Z,3.40
2018-08-06T07:51:47.293Z,3.50
2018-08-06T07:54:14.520Z,3.60
2018-08-06T07:56:41.747Z,4.17
2018-08-06T07:59:09.018Z,3.80
2018-08-06T08:01:36.267Z,4.37
2018-08-06T08:04:03.671Z,3.77
2018-08-06T08:06:31.070Z,3.67
2018-08-06T08:08:58.242Z,3.93
2018-08-06T08:11:25.512Z,3.47
2018-08-06T08:13:52.741Z,3.10
2018-08-06T08:16:19.993Z,3.17
2018-08-06T08:18:47.269Z,3.73
2018-08-06T08:21:14.523Z,3.53
2018-08-06T08:23:41.836Z,3.30
2018-08-06T08:26:09.169Z,4.13
2018-08-06T08:28:36.418Z,3.50
2018-08-06T08:31:03.688Z,3.97
2018-08-06T08:33:30.947Z,3.63
2018-08-06T08:55:32.478Z,3.53
2018-08-06T08:57:59.758Z,4.30
2018-08-06T09:00:26.991Z,3.53
2018-08-06T09:02:54.275Z,3.43
2018-08-06T09:05:21.623Z,3.17
2018-08-06T09:07:49.528Z,3.63
2018-08-06T09:10:17.507Z,3.90
2018-08-06T09:12:45.059Z,3.30
2018-08-06T09:15:20.807Z,3.57
2018-08-06T09:17:48.084Z,4.20
2018-08-06T09:20:15.319Z,3.10
2018-08-06T09:22:43.229Z,3.30
2018-08-06T09:25:11.360Z,3.37
2018-08-06T09:27:39.725Z,3.40
2018-08-06T09:30:11.157Z,3.07
2018-08-06T09:32:38.427Z,3.00
2018-08-06T09:35:05.724Z,3.40
2018-08-06T09:37:33.043Z,2.83
2018-08-06T09:40:00.307Z,3.50
2018-08-06T09:42:27.588Z,3.47
2018-08-06T09:44:55.004Z,4.43
2018-08-06T09:47:22.403Z,3.40
2018-08-06T09:49:49.621Z,3.13
2018-08-06T09:52:17.162Z,3.37
2018-08-06T09:54:44.496Z,3.30
2018-08-06T09:57:11.850Z,3.30
2018-08-06T09:59:39.105Z,3.70
2018-08-06T10:02:06.470Z,3.83
2018-08-06T10:04:33.702Z,3.53
2018-08-06T10:07:01.045Z,3.80
2018-08-06T10:09:28.287Z,3.77
2018-08-06T10:11:55.592Z,3.57
2018-08-06T10:14:22.998Z,4.10
2018-08-06T10:16:50.256Z,3.10
2018-08-06T10:19:17.614Z,3.63
2018-08-06T10:21:44.847Z,3.77
2018-08-06T10:24:12.213Z,3.03
2018-08-06T10:26:39.461Z,3.50
2018-08-06T10:29:06.746Z,3.20
2018-08-06T10:31:33.948Z,3.30
2018-08-06T10:41:21.690Z,3.53
2018-08-06T10:43:49.007Z,3.20
2018-08-06T10:46:16.346Z,3.27
2018-08-06T10:48:44.611Z,3.60
2018-08-06T10:51:12.095Z,3.63
2018-08-06T10:53:39.326Z,3.57
2018-08-06T10:56:06.648Z,3.50
2018-08-06T11:01:00.813Z,3.00
2018-08-06T11:03:28.107Z,3.63
2018-08-06T11:05:55.420Z,3.53
2018-08-06T11:08:22.716Z,3.40
2018-08-06T11:10:49.919Z,3.20
2018-08-06T11:13:17.584Z,3.30
2018-08-06T11:15:44.786Z,3.50
2018-08-06T11:20:38.819Z,3.08
2018-08-06T11:23:06.096Z,3.27
2018-08-06T11:28:00.109Z,3.02
2018-08-06T11:30:27.424Z,2.90
2018-08-06T11:32:54.906Z,2.60
2018-08-06T11:35:22.155Z,2.73
2018-08-06T11:37:49.505Z,2.77
2018-08-06T11:40:17.409Z,2.60
2018-08-06T11:42:45.382Z,2.40
2018-08-06T11:45:14.854Z,2.62
2018-08-06T11:47:42.199Z,3.08
2018-08-06T11:50:10.069Z,2.50
2018-08-06T11:52:37.538Z,2.58
2018-08-06T11:55:05.391Z,2.70
2018-08-06T11:57:32.691Z,2.20
2018-08-06T12:07:20.481Z,2.80
2018-08-06T12:09:47.734Z,2.27
2018-08-06T12:12:14.995Z,2.80
2018-08-06T12:14:42.295Z,2.40
2018-08-06T12:17:09.560Z,2.10
2018-08-06T12:19:36.915Z,1.90
2018-08-06T12:22:04.167Z,2.08
2018-08-06T12:24:31.396Z,1.92
2018-08-06T12:26:58.704Z,2.05
2018-08-06T12:29:26.412Z,1.80
2018-08-06T12:44:11.004Z,2.10
2018-08-06T12:46:38.589Z,1.80
2018-08-06T13:01:20.387Z,2.27
2018-08-06T13:03:47.946Z,1.70
2018-08-06T13:08:42.199Z,1.90
2018-08-06T13:11:09.397Z,1.80
2018-08-06T13:13:36.619Z,1.60
2018-08-06T13:16:04.313Z,1.90
2018-08-06T13:18:31.683Z,2.00
2018-08-06T13:20:58.967Z,1.60
2018-08-06T13:23:26.272Z,1.75
2018-08-06T13:25:53.576Z,1.50
2018-08-06T13:28:20.911Z,2.20
2018-08-06T13:30:48.196Z,1.60
2018-08-06T13:33:15.391Z,1.82
2018-08-06T13:35:42.705Z,1.80
2018-08-06T13:38:09.975Z,1.92
2018-08-06T13:40:37.279Z,1.60
2018-08-06T13:43:04.864Z,1.55
2018-08-06T13:45:32.100Z,1.70
2018-08-06T13:47:59.402Z,3.10
2018-08-06T13:50:26.642Z,1.52
2018-08-06T13:52:53.953Z,1.57
2018-08-06T13:55:21.172Z,1.47
2018-08-06T13:57:48.463Z,1.50
2018-08-06T14:00:17.445Z,1.70
2018-08-06T14:02:44.781Z,1.60
2018-08-06T14:05:13.400Z,1.25
2018-08-06T14:07:41.044Z,1.22
2018-08-06T14:10:09.213Z,1.67
2018-08-06T14:12:37.187Z,1.42
2018-08-06T14:15:05.311Z,1.40
2018-08-06T14:17:32.560Z,1.80
2018-08-06T14:19:59.805Z,1.42
2018-08-06T14:22:27.312Z,1.80
2018-08-06T14:24:54.563Z,1.30
2018-08-06T14:27:21.832Z,1.50
2018-08-06T14:29:49.193Z,1.40
2018-08-06T14:32:16.587Z,1.22
2018-08-06T14:34:44.081Z,1.42
2018-08-06T14:37:11.399Z,1.50
2018-08-06T14:39:38.711Z,1.40
2018-08-06T14:42:06.484Z,1.20
2018-08-06T14:44:33.893Z,1.67
2018-08-06T14:47:01.234Z,1.20
2018-08-06T14:49:28.567Z,1.10
2018-08-06T14:51:55.908Z,1.50
2018-08-06T14:54:23.232Z,1.50
2018-08-06T14:59:17.509Z,1.15
2018-08-06T15:01:44.821Z,1.40
2018-08-06T15:04:12.081Z,1.20
2018-08-06T15:06:39.323Z,1.10
2018-08-06T15:09:07.863Z,1.05
2018-08-06T15:11:35.084Z,1.10
2018-08-06T15:14:02.727Z,1.15
2018-08-06T15:16:30.141Z,1.10
2018-08-06T15:18:57.515Z,1.47
2018-08-06T15:21:24.875Z,1.40
2018-08-06T15:23:52.255Z,1.15
2018-08-06T15:26:19.575Z,1.20
2018-08-06T15:28:46.841Z,1.30
2018-08-06T15:31:14.658Z,1.30
2018-08-06T15:33:41.943Z,1.40
2018-08-06T15:36:09.290Z,1.50
2018-08-06T15:38:36.592Z,1.40
2018-08-06T15:41:04.317Z,1.40
2018-08-06T15:43:31.755Z,1.40
2018-08-06T15:45:59.137Z,1.20
2018-08-06T15:48:26.378Z,1.30
2018-08-06T16:08:01.759Z,1.45
2018-08-06T16:12:56.040Z,1.40
2018-08-06T16:15:23.463Z,1.70
2018-08-06T16:17:51.807Z,1.20
2018-08-06T16:20:19.088Z,1.60
2018-08-06T16:22:46.475Z,1.50
2018-08-06T16:25:14.093Z,1.42
2018-08-06T16:27:41.399Z,1.50
2018-08-06T16:30:17.439Z,1.40
2018-08-06T16:32:45.962Z,1.50
2018-08-06T16:35:13.688Z,1.60
2018-08-06T16:37:40.933Z,1.72
2018-08-06T16:40:09.108Z,1.50
2018-08-06T16:42:36.381Z,1.40
2018-08-06T16:45:04.452Z,1.30
2018-08-06T16:47:31.829Z,1.57
2018-08-06T16:49:59.177Z,1.50
2018-08-06T16:52:26.519Z,1.50
2018-08-06T16:54:54.150Z,1.60
2018-08-06T16:57:21.416Z,1.72
2018-08-06T16:59:49.331Z,2.37
2018-08-06T17:02:16.620Z,1.80
2018-08-06T17:21:51.610Z,1.40
2018-08-06T17:24:18.925Z,1.52
2018-08-06T17:26:46.217Z,1.50
2018-08-06T17:29:13.475Z,1.77
2018-08-06T17:31:40.694Z,2.75
2018-08-06T17:36:34.811Z,2.40
2018-08-06T17:39:02.171Z,2.83
2018-08-06T17:58:37.154Z,2.63
2018-08-06T18:01:04.527Z,2.30
2018-08-06T18:03:31.883Z,2.50
2018-08-06T19:14:41.650Z,7.20
2018-08-06T19:17:10.074Z,6.22
2018-08-06T19:19:37.348Z,5.35
2018-08-06T19:22:04.676Z,5.50
2018-08-06T19:24:37.897Z,5.40
2018-08-06T19:27:05.248Z,4.40
2018-08-06T19:29:32.622Z,4.40
2018-08-06T19:32:00.445Z,4.35
2018-08-06T19:34:27.928Z,6.20
2018-08-06T19:37:04.194Z,6.20
2018-08-06T19:39:31.499Z,11.30
2018-08-06T19:41:58.823Z,19.90
2018-08-06T19:44:26.129Z,34.20
2018-08-06T19:46:53.659Z,24.55
2018-08-06T19:49:26.743Z,12.10
2018-08-06T19:51:54.078Z,7.65
2018-08-06T19:54:21.436Z,5.80
2018-08-06T19:56:48.891Z,5.40
2018-08-06T19:59:16.303Z,5.45
2018-08-06T20:01:48.969Z,4.80
2018-08-06T20:04:16.555Z,5.10
2018-08-06T20:06:43.857Z,5.03
2018-08-06T20:09:13.119Z,5.30
2018-08-06T20:11:40.648Z,4.40
2018-08-06T20:14:09.463Z,5.33
2018-08-06T20:16:36.887Z,5.80
2018-08-06T20:19:06.497Z,5.20
2018-08-06T20:21:33.886Z,5.20
2018-08-06T20:24:01.345Z,4.83
2018-08-06T20:26:28.597Z,5.20
2018-08-06T20:28:55.939Z,5.50
2018-08-06T20:31:23.415Z,6.90
2018-08-06T20:33:50.882Z,5.93
2018-08-06T20:36:18.252Z,6.00
2018-08-06T20:38:45.541Z,6.20
2018-08-06T20:41:19.946Z,6.10
2018-08-06T20:43:47.402Z,5.62
2018-08-06T20:46:14.968Z,6.00
2018-08-06T20:48:42.278Z,6.30
2018-08-06T20:51:09.572Z,5.83
2018-08-06T20:53:36.849Z,6.10
2018-08-06T20:56:04.193Z,5.75
2018-08-06T20:58:31.551Z,5.90
2018-08-06T21:00:58.916Z,6.30
2018-08-06T21:03:26.179Z,6.00
2018-08-06T21:05:54.203Z,7.27
2018-08-06T21:08:21.773Z,7.20
2018-08-06T21:10:50.151Z,7.10
2018-08-06T21:13:19.338Z,7.30
2018-08-06T21:18:13.339Z,6.77
2018-08-06T21:20:40.588Z,6.60
2018-08-06T21:23:07.874Z,7.23
2018-08-06T21:25:35.541Z,7.07
2018-08-06T21:28:02.970Z,6.33
2018-08-06T21:30:30.288Z,6.57
2018-08-06T21:32:57.491Z,6.33
2018-08-06T21:35:26.083Z,5.30
2018-08-06T21:37:53.990Z,6.20
2018-08-06T21:40:22.065Z,5.83
2018-08-06T21:42:49.918Z,6.83
2018-08-06T21:45:17.491Z,4.83
2018-08-06T21:47:44.755Z,5.03
2018-08-06T21:50:12.613Z,5.20
2018-08-06T21:52:39.911Z,5.07
2018-08-06T21:55:07.735Z,4.60
2018-08-06T22:41:15.407Z,3.80
2018-08-06T22:43:42.860Z,4.00
2018-08-06T22:46:10.085Z,3.20
2018-08-06T22:48:37.319Z,3.30
2018-08-06T22:51:04.583Z,3.40
2018-08-06T22:53:31.900Z,3.57
2018-08-06T22:56:03.016Z,3.05
2018-08-06T22:58:30.301Z,2.80
2018-08-06T23:00:57.673Z,2.87
2018-08-06T23:03:24.979Z,3.00
2018-08-06T23:05:52.381Z,3.10
2018-08-06T23:08:19.867Z,2.95
2018-08-06T23:10:47.148Z,3.10
2018-08-06T23:13:14.681Z,3.00
2018-08-06T23:15:41.980Z,3.00
2018-08-06T23:18:09.236Z,3.08
2018-08-06T23:20:36.543Z,3.00
2018-08-06T23:23:03.839Z,3.00
2018-08-06T23:25:31.069Z,3.17
2018-08-06T23:27:58.353Z,3.70
2018-08-06T23:30:25.603Z,3.50
2018-08-06T23:32:52.892Z,3.77
2018-08-06T23:35:20.243Z,3.40
2018-08-06T23:37:47.460Z,3.50
2018-08-06T23:40:15.009Z,3.22
2018-08-06T23:42:42.690Z,3.50
2018-08-06T23:45:11.768Z,3.50
2018-08-06T23:47:39.477Z,3.40
2018-08-06T23:50:08.165Z,3.17
2018-08-06T23:52:35.447Z,3.65
2018-08-06T23:55:02.711Z,3.50
2018-08-06T23:57:30.036Z,3.30
2018-08-06T23:59:57.278Z,3.40
